sensor_id;sensor_type;location;lat;lon;timestamp;temperature;humidity
64843;DHT22;51310;52.198;5.422;2023-01-25T00:02:20;1.90;95.00
64843;DHT22;51310;52.198;5.422;2023-01-25T00:04:46;1.90;94.80
64843;DHT22;51310;52.198;5.422;2023-01-25T00:07:12;1.90;94.60
64843;DHT22;51310;52.198;5.422;2023-01-25T00:09:37;1.80;94.90
64843;DHT22;51310;52.198;5.422;2023-01-25T00:12:03;1.90;95.30
64843;DHT22;51310;52.198;5.422;2023-01-25T00:14:29;1.80;95.00
64843;DHT22;51310;52.198;5.422;2023-01-25T00:16:55;1.80;96.00
64843;DHT22;51310;52.198;5.422;2023-01-25T00:19:21;1.90;96.30
64843;DHT22;51310;52.198;5.422;2023-01-25T00:21:48;2.10;95.10
64843;DHT22;51310;52.198;5.422;2023-01-25T00:24:14;2.00;93.90
64843;DHT22;51310;52.198;5.422;2023-01-25T00:26:40;2.10;93.50
64843;DHT22;51310;52.198;5.422;2023-01-25T00:29:11;2.10;93.70
64843;DHT22;51310;52.198;5.422;2023-01-25T00:34:56;1.90;94.60
64843;DHT22;51310;52.198;5.422;2023-01-25T00:37:41;1.80;94.20
64843;DHT22;51310;52.198;5.422;2023-01-25T00:40:10;1.70;94.10
64843;DHT22;51310;52.198;5.422;2023-01-25T00:42:37;1.40;95.00
64843;DHT22;51310;52.198;5.422;2023-01-25T00:45:03;1.20;98.30
64843;DHT22;51310;52.198;5.422;2023-01-25T00:47:29;1.00;99.20
64843;DHT22;51310;52.198;5.422;2023-01-25T00:49:55;1.10;99.90
64843;DHT22;51310;52.198;5.422;2023-01-25T00:52:21;1.20;99.70
64843;DHT22;51310;52.198;5.422;2023-01-25T00:54:47;1.50;99.30
64843;DHT22;51310;52.198;5.422;2023-01-25T00:57:13;1.60;93.60
64843;DHT22;51310;52.198;5.422;2023-01-25T00:59:39;1.40;96.00
64843;DHT22;51310;52.198;5.422;2023-01-25T01:02:09;1.50;97.90
64843;DHT22;51310;52.198;5.422;2023-01-25T01:04:36;1.60;97.50
64843;DHT22;51310;52.198;5.422;2023-01-25T01:07:02;1.50;96.60
64843;DHT22;51310;52.198;5.422;2023-01-25T01:09:27;1.60;96.90
64843;DHT22;51310;52.198;5.422;2023-01-25T01:11:53;1.70;95.70
64843;DHT22;51310;52.198;5.422;2023-01-25T01:14:20;1.50;95.70
64843;DHT22;51310;52.198;5.422;2023-01-25T01:16:47;1.50;96.80
64843;DHT22;51310;52.198;5.422;2023-01-25T01:19:13;1.50;96.30
64843;DHT22;51310;52.198;5.422;2023-01-25T01:21:38;1.50;97.10
64843;DHT22;51310;52.198;5.422;2023-01-25T01:24:05;1.60;96.90
64843;DHT22;51310;52.198;5.422;2023-01-25T01:26:31;1.50;96.00
64843;DHT22;51310;52.198;5.422;2023-01-25T01:28:57;1.40;98.40
64843;DHT22;51310;52.198;5.422;2023-01-25T01:31:23;1.30;98.10
64843;DHT22;51310;52.198;5.422;2023-01-25T01:33:51;1.20;97.90
64843;DHT22;51310;52.198;5.422;2023-01-25T01:36:20;1.00;98.90
64843;DHT22;51310;52.198;5.422;2023-01-25T01:38:47;1.10;99.90
64843;DHT22;51310;52.198;5.422;2023-01-25T01:41:14;1.20;99.10
64843;DHT22;51310;52.198;5.422;2023-01-25T01:43:41;1.20;99.40
64843;DHT22;51310;52.198;5.422;2023-01-25T01:52:12;1.40;96.50
64843;DHT22;51310;52.198;5.422;2023-01-25T01:54:47;1.10;97.50
64843;DHT22;51310;52.198;5.422;2023-01-25T01:57:34;1.20;99.20
64843;DHT22;51310;52.198;5.422;2023-01-25T02:00:21;1.20;98.70
64843;DHT22;51310;52.198;5.422;2023-01-25T02:02:50;1.10;97.30
64843;DHT22;51310;52.198;5.422;2023-01-25T02:08:16;1.30;98.20
64843;DHT22;51310;52.198;5.422;2023-01-25T02:10:43;1.40;97.90
64843;DHT22;51310;52.198;5.422;2023-01-25T02:13:10;1.50;97.90
64843;DHT22;51310;52.198;5.422;2023-01-25T02:15:46;1.40;95.30
64843;DHT22;51310;52.198;5.422;2023-01-25T02:18:15;1.30;95.70
64843;DHT22;51310;52.198;5.422;2023-01-25T02:20:44;1.30;97.30
64843;DHT22;51310;52.198;5.422;2023-01-25T02:26:01;1.40;96.60
64843;DHT22;51310;52.198;5.422;2023-01-25T02:28:35;1.50;97.10
64843;DHT22;51310;52.198;5.422;2023-01-25T02:31:11;2.60;97.20
64843;DHT22;51310;52.198;5.422;2023-01-25T02:33:37;1.70;97.00
64843;DHT22;51310;52.198;5.422;2023-01-25T02:38:54;1.60;95.30
64843;DHT22;51310;52.198;5.422;2023-01-25T02:41:29;3.40;95.90
64843;DHT22;51310;52.198;5.422;2023-01-25T02:43:59;1.50;94.50
64843;DHT22;51310;52.198;5.422;2023-01-25T02:46:30;1.50;93.60
64843;DHT22;51310;52.198;5.422;2023-01-25T02:49:03;1.40;95.50
64843;DHT22;51310;52.198;5.422;2023-01-25T02:51:32;1.40;96.20
64843;DHT22;51310;52.198;5.422;2023-01-25T02:54:01;1.40;96.90
64843;DHT22;51310;52.198;5.422;2023-01-25T02:56:28;1.50;96.60
64843;DHT22;51310;52.198;5.422;2023-01-25T02:58:54;1.60;96.60
64843;DHT22;51310;52.198;5.422;2023-01-25T03:01:20;1.70;95.90
64843;DHT22;51310;52.198;5.422;2023-01-25T03:03:46;1.80;94.90
64843;DHT22;51310;52.198;5.422;2023-01-25T03:06:12;1.80;93.70
64843;DHT22;51310;52.198;5.422;2023-01-25T03:08:37;1.90;93.20
64843;DHT22;51310;52.198;5.422;2023-01-25T03:11:04;1.60;93.80
64843;DHT22;51310;52.198;5.422;2023-01-25T03:13:32;1.50;93.00
64843;DHT22;51310;52.198;5.422;2023-01-25T03:16:01;1.50;93.60
64843;DHT22;51310;52.198;5.422;2023-01-25T03:18:33;1.50;94.50
64843;DHT22;51310;52.198;5.422;2023-01-25T03:21:08;1.60;94.90
64843;DHT22;51310;52.198;5.422;2023-01-25T03:23:36;1.60;93.10
64843;DHT22;51310;52.198;5.422;2023-01-25T03:26:11;1.50;93.40
64843;DHT22;51310;52.198;5.422;2023-01-25T03:28:39;1.40;94.80
64843;DHT22;51310;52.198;5.422;2023-01-25T03:31:07;1.40;94.70
64843;DHT22;51310;52.198;5.422;2023-01-25T03:33:35;1.10;93.30
64843;DHT22;51310;52.198;5.422;2023-01-25T03:36:01;1.20;95.10
64843;DHT22;51310;52.198;5.422;2023-01-25T03:38:27;1.00;94.60
64843;DHT22;51310;52.198;5.422;2023-01-25T03:40:53;1.10;95.00
64843;DHT22;51310;52.198;5.422;2023-01-25T03:43:20;1.10;96.90
64843;DHT22;51310;52.198;5.422;2023-01-25T03:45:50;1.20;96.70
64843;DHT22;51310;52.198;5.422;2023-01-25T03:48:20;1.40;96.00
64843;DHT22;51310;52.198;5.422;2023-01-25T03:50:57;1.30;94.40
64843;DHT22;51310;52.198;5.422;2023-01-25T03:53:25;1.10;93.70
64843;DHT22;51310;52.198;5.422;2023-01-25T03:56:07;0.90;95.70
64843;DHT22;51310;52.198;5.422;2023-01-25T03:58:35;0.80;97.60
64843;DHT22;51310;52.198;5.422;2023-01-25T04:01:04;1.00;98.10
64843;DHT22;51310;52.198;5.422;2023-01-25T04:03:32;1.00;97.50
64843;DHT22;51310;52.198;5.422;2023-01-25T04:05:58;1.10;98.30
64843;DHT22;51310;52.198;5.422;2023-01-25T04:08:25;1.10;97.30
64843;DHT22;51310;52.198;5.422;2023-01-25T04:10:56;1.20;97.10
64843;DHT22;51310;52.198;5.422;2023-01-25T04:13:26;1.30;95.90
64843;DHT22;51310;52.198;5.422;2023-01-25T04:15:52;1.30;92.40
64843;DHT22;51310;52.198;5.422;2023-01-25T04:18:19;1.10;95.20
64843;DHT22;51310;52.198;5.422;2023-01-25T04:20:45;1.00;96.10
64843;DHT22;51310;52.198;5.422;2023-01-25T04:23:11;1.00;98.70
64843;DHT22;51310;52.198;5.422;2023-01-25T04:25:37;1.10;98.60
64843;DHT22;51310;52.198;5.422;2023-01-25T04:28:03;1.10;98.20
64843;DHT22;51310;52.198;5.422;2023-01-25T04:30:29;1.10;97.50
64843;DHT22;51310;52.198;5.422;2023-01-25T04:32:55;1.10;97.80
64843;DHT22;51310;52.198;5.422;2023-01-25T04:35:21;1.10;96.60
64843;DHT22;51310;52.198;5.422;2023-01-25T04:37:57;1.00;97.60
64843;DHT22;51310;52.198;5.422;2023-01-25T04:40:24;1.00;97.80
64843;DHT22;51310;52.198;5.422;2023-01-25T04:42:50;1.10;97.90
64843;DHT22;51310;52.198;5.422;2023-01-25T04:45:16;1.10;95.40
64843;DHT22;51310;52.198;5.422;2023-01-25T04:47:42;1.10;96.10
64843;DHT22;51310;52.198;5.422;2023-01-25T04:50:08;1.10;97.30
64843;DHT22;51310;52.198;5.422;2023-01-25T04:52:34;1.10;95.90
64843;DHT22;51310;52.198;5.422;2023-01-25T04:55:00;1.20;96.40
64843;DHT22;51310;52.198;5.422;2023-01-25T04:57:25;1.20;95.90
64843;DHT22;51310;52.198;5.422;2023-01-25T04:59:51;1.20;95.30
64843;DHT22;51310;52.198;5.422;2023-01-25T05:02:17;1.30;94.90
64843;DHT22;51310;52.198;5.422;2023-01-25T05:04:42;1.20;94.80
64843;DHT22;51310;52.198;5.422;2023-01-25T05:07:08;1.20;94.00
64843;DHT22;51310;52.198;5.422;2023-01-25T05:09:34;1.10;95.10
64843;DHT22;51310;52.198;5.422;2023-01-25T05:11:59;1.20;93.80
64843;DHT22;51310;52.198;5.422;2023-01-25T05:14:25;1.00;91.70
64843;DHT22;51310;52.198;5.422;2023-01-25T05:16:51;1.00;93.10
64843;DHT22;51310;52.198;5.422;2023-01-25T05:19:16;0.80;95.60
64843;DHT22;51310;52.198;5.422;2023-01-25T05:21:42;0.80;96.90
64843;DHT22;51310;52.198;5.422;2023-01-25T05:24:30;0.90;98.00
64843;DHT22;51310;52.198;5.422;2023-01-25T05:26:58;1.00;97.60
64843;DHT22;51310;52.198;5.422;2023-01-25T05:29:31;1.00;96.60
64843;DHT22;51310;52.198;5.422;2023-01-25T05:32:03;1.00;97.00
64843;DHT22;51310;52.198;5.422;2023-01-25T05:34:31;1.00;97.20
64843;DHT22;51310;52.198;5.422;2023-01-25T05:36:57;1.20;96.30
64843;DHT22;51310;52.198;5.422;2023-01-25T05:39:23;1.00;95.30
64843;DHT22;51310;52.198;5.422;2023-01-25T05:41:48;0.90;96.20
64843;DHT22;51310;52.198;5.422;2023-01-25T05:44:14;1.20;96.10
64843;DHT22;51310;52.198;5.422;2023-01-25T05:46:40;1.10;94.70
64843;DHT22;51310;52.198;5.422;2023-01-25T05:49:07;1.10;95.60
64843;DHT22;51310;52.198;5.422;2023-01-25T05:51:33;1.10;96.10
64843;DHT22;51310;52.198;5.422;2023-01-25T05:54:00;1.20;96.10
64843;DHT22;51310;52.198;5.422;2023-01-25T05:56:27;1.20;95.80
64843;DHT22;51310;52.198;5.422;2023-01-25T05:58:53;1.20;94.00
64843;DHT22;51310;52.198;5.422;2023-01-25T06:01:21;1.00;95.30
64843;DHT22;51310;52.198;5.422;2023-01-25T06:03:47;0.90;97.30
64843;DHT22;51310;52.198;5.422;2023-01-25T06:06:13;0.90;99.90
64843;DHT22;51310;52.198;5.422;2023-01-25T06:08:38;1.00;97.10
64843;DHT22;51310;52.198;5.422;2023-01-25T06:11:12;1.00;98.00
64843;DHT22;51310;52.198;5.422;2023-01-25T06:13:40;0.80;98.80
64843;DHT22;51310;52.198;5.422;2023-01-25T06:16:06;0.90;99.90
64843;DHT22;51310;52.198;5.422;2023-01-25T06:18:33;0.80;99.90
64843;DHT22;51310;52.198;5.422;2023-01-25T06:21:01;0.80;99.90
64843;DHT22;51310;52.198;5.422;2023-01-25T06:23:28;0.80;99.90
64843;DHT22;51310;52.198;5.422;2023-01-25T06:26:02;1.00;99.90
64843;DHT22;51310;52.198;5.422;2023-01-25T06:28:34;0.90;97.50
64843;DHT22;51310;52.198;5.422;2023-01-25T06:31:09;0.70;99.90
64843;DHT22;51310;52.198;5.422;2023-01-25T06:33:41;0.80;99.90
64843;DHT22;51310;52.198;5.422;2023-01-25T06:36:11;2.20;99.90
64843;DHT22;51310;52.198;5.422;2023-01-25T06:38:40;1.00;99.90
64843;DHT22;51310;52.198;5.422;2023-01-25T06:41:09;1.00;99.70
64843;DHT22;51310;52.198;5.422;2023-01-25T06:43:37;1.00;99.30
64843;DHT22;51310;52.198;5.422;2023-01-25T06:46:06;1.00;98.80
64843;DHT22;51310;52.198;5.422;2023-01-25T06:48:33;1.00;98.90
64843;DHT22;51310;52.198;5.422;2023-01-25T06:51:05;1.00;98.60
64843;DHT22;51310;52.198;5.422;2023-01-25T06:53:34;1.00;99.10
64843;DHT22;51310;52.198;5.422;2023-01-25T06:56:08;1.00;97.70
64843;DHT22;51310;52.198;5.422;2023-01-25T06:58:35;1.00;98.60
64843;DHT22;51310;52.198;5.422;2023-01-25T07:01:11;1.00;96.50
64843;DHT22;51310;52.198;5.422;2023-01-25T07:03:47;0.90;96.30
64843;DHT22;51310;52.198;5.422;2023-01-25T07:06:14;0.60;98.40
64843;DHT22;51310;52.198;5.422;2023-01-25T07:08:40;0.60;99.50
64843;DHT22;51310;52.198;5.422;2023-01-25T07:11:09;0.60;99.90
64843;DHT22;51310;52.198;5.422;2023-01-25T07:13:41;0.50;99.90
64843;DHT22;51310;52.198;5.422;2023-01-25T07:16:18;0.60;99.90
64843;DHT22;51310;52.198;5.422;2023-01-25T07:18:44;2.60;99.90
64843;DHT22;51310;52.198;5.422;2023-01-25T07:21:19;0.70;99.90
64843;DHT22;51310;52.198;5.422;2023-01-25T07:23:50;0.70;99.90
64843;DHT22;51310;52.198;5.422;2023-01-25T07:26:23;0.90;99.90
64843;DHT22;51310;52.198;5.422;2023-01-25T07:28:51;0.80;99.30
64843;DHT22;51310;52.198;5.422;2023-01-25T07:31:18;0.80;99.80
64843;DHT22;51310;52.198;5.422;2023-01-25T07:33:48;0.80;98.90
64843;DHT22;51310;52.198;5.422;2023-01-25T07:36:16;0.80;98.90
64843;DHT22;51310;52.198;5.422;2023-01-25T07:38:42;0.90;98.30
64843;DHT22;51310;52.198;5.422;2023-01-25T07:41:08;0.90;98.40
64843;DHT22;51310;52.198;5.422;2023-01-25T07:43:35;1.00;98.40
64843;DHT22;51310;52.198;5.422;2023-01-25T07:46:05;0.90;96.70
64843;DHT22;51310;52.198;5.422;2023-01-25T07:48:35;0.80;98.50
64843;DHT22;51310;52.198;5.422;2023-01-25T07:51:04;0.90;97.40
64843;DHT22;51310;52.198;5.422;2023-01-25T07:53:56;1.00;99.90
64843;DHT22;51310;52.198;5.422;2023-01-25T07:56:29;1.10;99.90
64843;DHT22;51310;52.198;5.422;2023-01-25T07:59:00;1.00;99.90
64843;DHT22;51310;52.198;5.422;2023-01-25T08:01:30;0.90;99.90
64843;DHT22;51310;52.198;5.422;2023-01-25T08:03:58;0.70;98.80
64843;DHT22;51310;52.198;5.422;2023-01-25T08:06:28;0.70;99.50
64843;DHT22;51310;52.198;5.422;2023-01-25T08:09:01;0.60;98.20
64843;DHT22;51310;52.198;5.422;2023-01-25T08:11:29;0.40;97.60
64843;DHT22;51310;52.198;5.422;2023-01-25T08:13:56;0.30;99.20
64843;DHT22;51310;52.198;5.422;2023-01-25T08:16:25;0.30;99.90
64843;DHT22;51310;52.198;5.422;2023-01-25T08:18:53;0.40;99.90
64843;DHT22;51310;52.198;5.422;2023-01-25T08:21:20;0.50;99.90
64843;DHT22;51310;52.198;5.422;2023-01-25T08:23:49;0.70;99.90
64843;DHT22;51310;52.198;5.422;2023-01-25T08:26:16;0.90;99.90
64843;DHT22;51310;52.198;5.422;2023-01-25T08:28:43;0.80;99.20
64843;DHT22;51310;52.198;5.422;2023-01-25T08:31:17;0.80;99.40
64843;DHT22;51310;52.198;5.422;2023-01-25T08:33:44;0.70;98.20
64843;DHT22;51310;52.198;5.422;2023-01-25T08:36:12;0.60;99.40
64843;DHT22;51310;52.198;5.422;2023-01-25T08:38:39;0.50;98.50
64843;DHT22;51310;52.198;5.422;2023-01-25T08:41:06;0.60;99.20
64843;DHT22;51310;52.198;5.422;2023-01-25T08:43:32;0.60;98.50
64843;DHT22;51310;52.198;5.422;2023-01-25T08:45:58;0.70;98.90
64843;DHT22;51310;52.198;5.422;2023-01-25T08:48:24;0.90;98.50
64843;DHT22;51310;52.198;5.422;2023-01-25T08:50:50;0.90;96.60
64843;DHT22;51310;52.198;5.422;2023-01-25T08:53:16;0.90;97.60
64843;DHT22;51310;52.198;5.422;2023-01-25T08:55:42;1.00;96.90
64843;DHT22;51310;52.198;5.422;2023-01-25T08:58:10;0.80;93.90
64843;DHT22;51310;52.198;5.422;2023-01-25T09:00:38;0.70;96.70
64843;DHT22;51310;52.198;5.422;2023-01-25T09:03:09;0.60;96.90
64843;DHT22;51310;52.198;5.422;2023-01-25T09:05:37;0.60;98.00
64843;DHT22;51310;52.198;5.422;2023-01-25T09:08:07;0.70;98.40
64843;DHT22;51310;52.198;5.422;2023-01-25T09:10:34;0.80;98.10
64843;DHT22;51310;52.198;5.422;2023-01-25T09:13:00;0.40;96.80
64843;DHT22;51310;52.198;5.422;2023-01-25T09:15:26;0.50;98.60
64843;DHT22;51310;52.198;5.422;2023-01-25T09:17:53;0.50;99.90
64843;DHT22;51310;52.198;5.422;2023-01-25T09:20:20;0.50;99.70
64843;DHT22;51310;52.198;5.422;2023-01-25T09:22:47;0.60;98.80
64843;DHT22;51310;52.198;5.422;2023-01-25T09:25:13;0.60;96.60
64843;DHT22;51310;52.198;5.422;2023-01-25T09:27:39;0.50;98.70
64843;DHT22;51310;52.198;5.422;2023-01-25T09:30:07;0.50;99.90
64843;DHT22;51310;52.198;5.422;2023-01-25T09:32:35;0.50;99.90
64843;DHT22;51310;52.198;5.422;2023-01-25T09:35:01;0.70;99.90
64843;DHT22;51310;52.198;5.422;2023-01-25T09:37:28;0.70;99.90
64843;DHT22;51310;52.198;5.422;2023-01-25T09:39:54;0.70;99.90
64843;DHT22;51310;52.198;5.422;2023-01-25T09:45:35;0.70;99.90
64843;DHT22;51310;52.198;5.422;2023-01-25T09:48:29;2.50;99.90
64843;DHT22;51310;52.198;5.422;2023-01-25T09:53:49;0.70;95.70
64843;DHT22;51310;52.198;5.422;2023-01-25T09:56:26;0.80;97.90
64843;DHT22;51310;52.198;5.422;2023-01-25T09:58:59;0.80;95.70
64843;DHT22;51310;52.198;5.422;2023-01-25T10:01:34;0.70;96.80
64843;DHT22;51310;52.198;5.422;2023-01-25T10:04:27;0.60;97.40
64843;DHT22;51310;52.198;5.422;2023-01-25T10:10:22;0.30;98.70
64843;DHT22;51310;52.198;5.422;2023-01-25T10:12:54;0.40;99.90
64843;DHT22;51310;52.198;5.422;2023-01-25T10:15:22;0.30;99.90
64843;DHT22;51310;52.198;5.422;2023-01-25T10:18:03;0.30;99.90
64843;DHT22;51310;52.198;5.422;2023-01-25T10:20:48;0.30;99.90
64843;DHT22;51310;52.198;5.422;2023-01-25T10:26:21;0.40;99.90
64843;DHT22;51310;52.198;5.422;2023-01-25T10:29:19;0.40;99.90
64843;DHT22;51310;52.198;5.422;2023-01-25T10:31:51;0.50;99.90
64843;DHT22;51310;52.198;5.422;2023-01-25T10:34:23;0.60;99.90
64843;DHT22;51310;52.198;5.422;2023-01-25T10:37:18;0.60;99.90
64843;DHT22;51310;52.198;5.422;2023-01-25T10:40:00;-0.30;99.90
64843;DHT22;51310;52.198;5.422;2023-01-25T10:42:32;0.80;99.90
64843;DHT22;51310;52.198;5.422;2023-01-25T10:45:13;0.90;99.90
64843;DHT22;51310;52.198;5.422;2023-01-25T10:47:46;0.90;99.90
64843;DHT22;51310;52.198;5.422;2023-01-25T10:53:35;0.60;99.90
64843;DHT22;51310;52.198;5.422;2023-01-25T10:58:43;0.90;99.90
64843;DHT22;51310;52.198;5.422;2023-01-25T11:01:31;1.00;99.90
64843;DHT22;51310;52.198;5.422;2023-01-25T11:03:59;1.10;99.80
64843;DHT22;51310;52.198;5.422;2023-01-25T11:06:37;1.10;97.70
64843;DHT22;51310;52.198;5.422;2023-01-25T11:11:53;1.40;96.80
64843;DHT22;51310;52.198;5.422;2023-01-25T11:14:23;1.40;95.80
64843;DHT22;51310;52.198;5.422;2023-01-25T11:16:52;1.40;94.40
64843;DHT22;51310;52.198;5.422;2023-01-25T11:19:31;1.40;94.50
64843;DHT22;51310;52.198;5.422;2023-01-25T11:22:00;1.50;94.40
64843;DHT22;51310;52.198;5.422;2023-01-25T11:24:30;1.50;91.50
64843;DHT22;51310;52.198;5.422;2023-01-25T11:27:18;1.30;92.60
64843;DHT22;51310;52.198;5.422;2023-01-25T11:29:46;1.10;93.70
64843;DHT22;51310;52.198;5.422;2023-01-25T11:32:30;1.10;96.00
64843;DHT22;51310;52.198;5.422;2023-01-25T11:34:57;1.10;93.60
64843;DHT22;51310;52.198;5.422;2023-01-25T11:37:45;1.00;93.70
64843;DHT22;51310;52.198;5.422;2023-01-25T11:40:24;2.40;95.80
64843;DHT22;51310;52.198;5.422;2023-01-25T11:49:22;0.60;98.60
64843;DHT22;51310;52.198;5.422;2023-01-25T11:52:22;0.60;98.30
64843;DHT22;51310;52.198;5.422;2023-01-25T11:57:44;0.80;98.10
64843;DHT22;51310;52.198;5.422;2023-01-25T12:12:11;1.10;94.90
64843;DHT22;51310;52.198;5.422;2023-01-25T12:20:59;1.10;92.70
64843;DHT22;51310;52.198;5.422;2023-01-25T12:23:31;1.00;93.20
64843;DHT22;51310;52.198;5.422;2023-01-25T12:32:42;0.90;93.80
64843;DHT22;51310;52.198;5.422;2023-01-25T12:38:58;0.90;94.00
64843;DHT22;51310;52.198;5.422;2023-01-25T12:46:55;0.90;93.70
64843;DHT22;51310;52.198;5.422;2023-01-25T12:49:37;0.70;93.80
64843;DHT22;51310;52.198;5.422;2023-01-25T12:55:00;0.50;99.90
64843;DHT22;51310;52.198;5.422;2023-01-25T12:57:57;0.60;99.90
64843;DHT22;51310;52.198;5.422;2023-01-25T13:06:17;0.90;98.60
64843;DHT22;51310;52.198;5.422;2023-01-25T13:09:09;1.00;99.00
64843;DHT22;51310;52.198;5.422;2023-01-25T13:11:43;1.00;97.30
64843;DHT22;51310;52.198;5.422;2023-01-25T13:16:42;0.90;96.60
64843;DHT22;51310;52.198;5.422;2023-01-25T13:21:55;0.80;96.70
64843;DHT22;51310;52.198;5.422;2023-01-25T13:31:57;0.80;96.90
64843;DHT22;51310;52.198;5.422;2023-01-25T13:37:24;0.50;98.00
64843;DHT22;51310;52.198;5.422;2023-01-25T13:40:00;0.50;99.10
64843;DHT22;51310;52.198;5.422;2023-01-25T13:43:03;0.40;99.90
64843;DHT22;51310;52.198;5.422;2023-01-25T13:45:41;0.50;99.90
64843;DHT22;51310;52.198;5.422;2023-01-25T13:50:35;0.50;99.90
64843;DHT22;51310;52.198;5.422;2023-01-25T13:55:41;0.80;99.60
64843;DHT22;51310;52.198;5.422;2023-01-25T14:01:04;0.50;98.60
64843;DHT22;51310;52.198;5.422;2023-01-25T14:08:49;0.40;99.90
64843;DHT22;51310;52.198;5.422;2023-01-25T14:11:26;0.40;99.90
64843;DHT22;51310;52.198;5.422;2023-01-25T14:14:02;0.50;99.90
64843;DHT22;51310;52.198;5.422;2023-01-25T14:17:18;0.60;99.90
64843;DHT22;51310;52.198;5.422;2023-01-25T14:19:48;0.50;99.90
64843;DHT22;51310;52.198;5.422;2023-01-25T14:22:25;0.60;99.00
64843;DHT22;51310;52.198;5.422;2023-01-25T14:25:14;0.60;97.80
64843;DHT22;51310;52.198;5.422;2023-01-25T14:27:52;0.40;99.90
64843;DHT22;51310;52.198;5.422;2023-01-25T14:30:26;0.30;99.90
64843;DHT22;51310;52.198;5.422;2023-01-25T14:32:55;0.40;99.90
64843;DHT22;51310;52.198;5.422;2023-01-25T14:37:58;0.40;99.90
64843;DHT22;51310;52.198;5.422;2023-01-25T14:40:28;0.50;99.90
64843;DHT22;51310;52.198;5.422;2023-01-25T14:42:56;0.60;99.90
64843;DHT22;51310;52.198;5.422;2023-01-25T14:45:23;1.10;99.90
64843;DHT22;51310;52.198;5.422;2023-01-25T14:47:51;0.70;99.00
64843;DHT22;51310;52.198;5.422;2023-01-25T14:50:28;0.40;99.90
64843;DHT22;51310;52.198;5.422;2023-01-25T14:53:05;0.40;99.90
64843;DHT22;51310;52.198;5.422;2023-01-25T14:55:34;0.40;99.90
64843;DHT22;51310;52.198;5.422;2023-01-25T14:58:01;0.30;99.90
64843;DHT22;51310;52.198;5.422;2023-01-25T15:00:28;0.40;99.90
64843;DHT22;51310;52.198;5.422;2023-01-25T15:03:01;0.20;99.90
64843;DHT22;51310;52.198;5.422;2023-01-25T15:05:34;0.30;99.90
64843;DHT22;51310;52.198;5.422;2023-01-25T15:10:37;0.20;99.90
64843;DHT22;51310;52.198;5.422;2023-01-25T15:15:55;0.30;99.90
64843;DHT22;51310;52.198;5.422;2023-01-25T15:21:15;0.30;99.90
64843;DHT22;51310;52.198;5.422;2023-01-25T15:23:45;0.30;99.90
64843;DHT22;51310;52.198;5.422;2023-01-25T15:26:24;0.20;99.90
64843;DHT22;51310;52.198;5.422;2023-01-25T15:28:54;0.30;99.90
64843;DHT22;51310;52.198;5.422;2023-01-25T15:31:26;0.30;99.90
64843;DHT22;51310;52.198;5.422;2023-01-25T15:33:57;0.40;99.90
64843;DHT22;51310;52.198;5.422;2023-01-25T15:36:24;0.40;99.90
64843;DHT22;51310;52.198;5.422;2023-01-25T15:38:50;0.40;99.90
64843;DHT22;51310;52.198;5.422;2023-01-25T15:41:16;0.40;99.90
64843;DHT22;51310;52.198;5.422;2023-01-25T15:43:46;0.30;99.90
64843;DHT22;51310;52.198;5.422;2023-01-25T15:46:24;0.30;99.90
64843;DHT22;51310;52.198;5.422;2023-01-25T15:48:52;0.30;99.90
64843;DHT22;51310;52.198;5.422;2023-01-25T15:51:19;0.30;99.90
64843;DHT22;51310;52.198;5.422;2023-01-25T15:53:45;0.40;99.90
64843;DHT22;51310;52.198;5.422;2023-01-25T15:56:19;0.20;99.90
64843;DHT22;51310;52.198;5.422;2023-01-25T15:58:51;0.20;99.90
64843;DHT22;51310;52.198;5.422;2023-01-25T16:01:20;0.20;99.90
64843;DHT22;51310;52.198;5.422;2023-01-25T16:03:47;0.20;99.90
64843;DHT22;51310;52.198;5.422;2023-01-25T16:06:44;0.20;99.90
64843;DHT22;51310;52.198;5.422;2023-01-25T16:09:20;0.10;99.90
64843;DHT22;51310;52.198;5.422;2023-01-25T16:11:48;0.10;99.90
64843;DHT22;51310;52.198;5.422;2023-01-25T16:14:16;0.00;99.90
64843;DHT22;51310;52.198;5.422;2023-01-25T16:16:44;0.10;99.90
64843;DHT22;51310;52.198;5.422;2023-01-25T16:19:15;0.10;99.90
64843;DHT22;51310;52.198;5.422;2023-01-25T16:21:43;2.20;99.90
64843;DHT22;51310;52.198;5.422;2023-01-25T16:24:10;0.30;99.90
64843;DHT22;51310;52.198;5.422;2023-01-25T16:26:56;0.40;99.90
64843;DHT22;51310;52.198;5.422;2023-01-25T16:29:23;0.30;99.90
64843;DHT22;51310;52.198;5.422;2023-01-25T16:31:50;0.30;99.90
64843;DHT22;51310;52.198;5.422;2023-01-25T16:34:17;0.20;99.90
64843;DHT22;51310;52.198;5.422;2023-01-25T16:36:44;0.10;99.90
64843;DHT22;51310;52.198;5.422;2023-01-25T16:39:22;0.10;99.90
64843;DHT22;51310;52.198;5.422;2023-01-25T16:41:49;0.00;99.90
64843;DHT22;51310;52.198;5.422;2023-01-25T16:44:16;0.00;99.90
64843;DHT22;51310;52.198;5.422;2023-01-25T16:46:42;0.10;99.90
64843;DHT22;51310;52.198;5.422;2023-01-25T16:49:21;0.10;99.90
64843;DHT22;51310;52.198;5.422;2023-01-25T16:51:52;0.10;99.90
64843;DHT22;51310;52.198;5.422;2023-01-25T16:54:20;0.10;99.90
64843;DHT22;51310;52.198;5.422;2023-01-25T16:56:46;0.20;99.90
64843;DHT22;51310;52.198;5.422;2023-01-25T16:59:12;0.20;99.90
64843;DHT22;51310;52.198;5.422;2023-01-25T17:01:38;0.30;99.90
64843;DHT22;51310;52.198;5.422;2023-01-25T17:04:06;0.40;99.90
64843;DHT22;51310;52.198;5.422;2023-01-25T17:06:35;0.40;99.90
64843;DHT22;51310;52.198;5.422;2023-01-25T17:09:05;0.30;99.90
64843;DHT22;51310;52.198;5.422;2023-01-25T17:11:34;0.30;99.90
64843;DHT22;51310;52.198;5.422;2023-01-25T17:14:01;0.20;99.90
64843;DHT22;51310;52.198;5.422;2023-01-25T17:16:28;0.30;99.90
64843;DHT22;51310;52.198;5.422;2023-01-25T17:19:01;0.40;99.90
64843;DHT22;51310;52.198;5.422;2023-01-25T17:21:30;0.40;99.90
64843;DHT22;51310;52.198;5.422;2023-01-25T17:23:58;1.50;99.90
64843;DHT22;51310;52.198;5.422;2023-01-25T17:26:26;0.50;99.90
64843;DHT22;51310;52.198;5.422;2023-01-25T17:28:55;0.40;99.90
64843;DHT22;51310;52.198;5.422;2023-01-25T17:31:27;0.40;99.90
64843;DHT22;51310;52.198;5.422;2023-01-25T17:33:55;0.30;99.90
64843;DHT22;51310;52.198;5.422;2023-01-25T17:36:21;0.30;99.90
64843;DHT22;51310;52.198;5.422;2023-01-25T17:38:48;0.30;99.90
64843;DHT22;51310;52.198;5.422;2023-01-25T17:41:15;0.20;99.90
64843;DHT22;51310;52.198;5.422;2023-01-25T17:43:41;2.10;99.90
64843;DHT22;51310;52.198;5.422;2023-01-25T17:46:21;0.00;99.90
64843;DHT22;51310;52.198;5.422;2023-01-25T17:48:51;0.00;99.90
64843;DHT22;51310;52.198;5.422;2023-01-25T17:51:18;0.10;99.90
64843;DHT22;51310;52.198;5.422;2023-01-25T17:53:44;0.20;99.90
64843;DHT22;51310;52.198;5.422;2023-01-25T17:56:11;0.20;99.90
64843;DHT22;51310;52.198;5.422;2023-01-25T17:58:39;0.20;99.90
64843;DHT22;51310;52.198;5.422;2023-01-25T18:01:17;0.20;99.90
64843;DHT22;51310;52.198;5.422;2023-01-25T18:03:54;0.20;99.90
64843;DHT22;51310;52.198;5.422;2023-01-25T18:06:30;0.10;99.90
64843;DHT22;51310;52.198;5.422;2023-01-25T18:08:58;0.10;99.90
64843;DHT22;51310;52.198;5.422;2023-01-25T18:11:28;0.10;99.90
64843;DHT22;51310;52.198;5.422;2023-01-25T18:13:58;0.20;99.90
64843;DHT22;51310;52.198;5.422;2023-01-25T18:16:28;0.20;99.90